createdAt,value
2023-04-09T00:00:20.768Z,27.43
2023-04-09T00:02:47.884Z,26.23
2023-04-09T00:05:15.310Z,28.40
2023-04-09T00:07:44.365Z,26.37
2023-04-09T00:10:11.772Z,27.53
2023-04-09T00:12:38.980Z,23.53
2023-04-09T00:15:06.520Z,28.33
2023-04-09T00:17:33.678Z,25.80
2023-04-09T00:20:00.875Z,28.27
2023-04-09T00:22:27.967Z,29.90
2023-04-09T00:24:55.530Z,24.90
2023-04-09T00:27:22.619Z,27.77
2023-04-09T00:29:49.675Z,29.97
2023-04-09T00:32:17.169Z,29.73
2023-04-09T00:34:44.206Z,31.70
2023-04-09T00:37:11.302Z,27.07
2023-04-09T00:39:38.361Z,29.30
2023-04-09T00:42:05.678Z,27.77
2023-04-09T00:44:32.716Z,30.30
2023-04-09T00:47:03.056Z,31.60
2023-04-09T00:49:30.212Z,29.77
2023-04-09T00:51:57.364Z,33.40
2023-04-09T00:54:24.710Z,30.97
2023-04-09T00:56:52.155Z,34.27
2023-04-09T00:59:20.002Z,33.60
2023-04-09T01:01:47.097Z,32.60
2023-04-09T01:04:14.216Z,27.90
2023-04-09T01:06:56.467Z,33.10
2023-04-09T01:09:33.869Z,32.40
2023-04-09T01:12:06.848Z,30.07
2023-04-09T01:14:39.541Z,31.10
2023-04-09T01:17:10.047Z,30.43
2023-04-09T01:19:53.407Z,31.70
2023-04-09T01:22:41.120Z,29.50
2023-04-09T01:25:15.489Z,31.73
2023-04-09T01:27:56.184Z,33.27
2023-04-09T01:30:23.395Z,30.67
2023-04-09T01:32:50.812Z,33.70
2023-04-09T01:35:18.644Z,32.57
2023-04-09T01:37:45.813Z,37.03
2023-04-09T01:40:13.186Z,33.27
2023-04-09T01:42:40.814Z,37.67
2023-04-09T01:45:08.181Z,32.17
2023-04-09T01:47:35.557Z,31.47
2023-04-09T01:50:03.578Z,34.63
2023-04-09T01:52:30.897Z,33.23
2023-04-09T01:54:57.956Z,36.57
2023-04-09T01:57:25.251Z,33.27
2023-04-09T01:59:52.294Z,37.77
2023-04-09T02:02:26.318Z,36.57
2023-04-09T02:04:54.640Z,36.97
2023-04-09T02:07:21.792Z,35.47
2023-04-09T02:09:49.496Z,36.37
2023-04-09T02:12:18.324Z,34.83
2023-04-09T02:14:49.259Z,36.27
2023-04-09T02:17:16.360Z,36.37
2023-04-09T02:19:44.609Z,42.30
2023-04-09T02:22:12.100Z,38.50
2023-04-09T02:24:40.321Z,32.03
2023-04-09T02:27:07.885Z,33.63
2023-04-09T02:29:34.948Z,34.33
2023-04-09T02:32:02.067Z,34.20
2023-04-09T02:34:29.181Z,37.40
2023-04-09T02:36:56.217Z,34.53
2023-04-09T02:39:23.596Z,36.60
2023-04-09T02:41:50.681Z,37.23
2023-04-09T02:44:17.719Z,35.90
2023-04-09T02:46:45.363Z,41.83
2023-04-09T02:49:12.435Z,43.17
2023-04-09T02:51:39.556Z,43.87
2023-04-09T02:54:06.603Z,43.33
2023-04-09T02:56:33.823Z,41.43
2023-04-09T02:59:00.968Z,36.70
2023-04-09T03:01:28.168Z,39.53
2023-04-09T03:03:55.429Z,36.70
2023-04-09T03:06:22.558Z,37.13
2023-04-09T03:08:49.738Z,38.63
2023-04-09T03:11:16.916Z,42.77
2023-04-09T03:13:43.982Z,40.00
2023-04-09T03:16:14.126Z,43.77
2023-04-09T03:18:41.204Z,45.57
2023-04-09T03:21:08.550Z,44.90
2023-04-09T03:23:36.106Z,41.33
2023-04-09T03:26:04.333Z,45.53
2023-04-09T03:28:31.487Z,42.40
2023-04-09T03:30:58.690Z,41.47
2023-04-09T03:33:26.099Z,43.10
2023-04-09T03:35:55.350Z,38.50
2023-04-09T03:38:22.447Z,44.00
2023-04-09T03:40:49.580Z,46.50
2023-04-09T03:43:16.621Z,46.13
2023-04-09T03:45:43.682Z,48.63
2023-04-09T03:48:10.709Z,45.87
2023-04-09T03:50:41.263Z,46.87
2023-04-09T03:53:08.406Z,45.47
2023-04-09T03:55:35.864Z,48.63
2023-04-09T03:58:02.942Z,49.37
2023-04-09T04:00:30.081Z,48.63
2023-04-09T04:02:57.447Z,48.30
2023-04-09T04:05:26.190Z,53.10
2023-04-09T04:07:53.634Z,48.63
2023-04-09T04:10:20.773Z,53.43
2023-04-09T04:12:47.965Z,55.63
2023-04-09T04:15:15.460Z,50.87
2023-04-09T04:17:42.819Z,51.13
2023-04-09T04:20:10.162Z,51.10
2023-04-09T04:22:37.237Z,50.97
2023-04-09T04:25:04.908Z,49.67
2023-04-09T04:27:32.067Z,53.67
2023-04-09T04:30:01.966Z,50.90
2023-04-09T04:32:29.154Z,46.53
2023-04-09T04:34:56.263Z,52.07
2023-04-09T04:37:23.299Z,48.97
2023-04-09T04:39:50.477Z,51.13
2023-04-09T04:42:17.874Z,54.33
2023-04-09T04:44:45.524Z,52.80
2023-04-09T04:47:12.726Z,48.83
2023-04-09T04:49:40.007Z,60.13
2023-04-09T04:52:07.693Z,57.23
2023-04-09T04:54:34.895Z,50.43
2023-04-09T04:57:01.970Z,52.00
2023-04-09T04:59:29.125Z,52.20
2023-04-09T05:01:56.378Z,51.90
2023-04-09T05:04:27.222Z,50.27
2023-04-09T05:06:55.719Z,51.33
2023-04-09T05:09:22.746Z,55.63
2023-04-09T05:11:49.852Z,56.57
2023-04-09T05:14:17.177Z,52.77
2023-04-09T05:16:44.268Z,54.77
2023-04-09T05:19:11.301Z,52.73
2023-04-09T05:21:38.344Z,49.50
2023-04-09T05:24:06.107Z,52.37
2023-04-09T05:26:33.142Z,57.73
2023-04-09T05:29:00.276Z,55.77
2023-04-09T05:31:27.419Z,55.47
2023-04-09T05:33:54.525Z,53.33
2023-04-09T05:36:21.600Z,53.93
2023-04-09T05:38:48.956Z,54.70
2023-04-09T05:41:16.080Z,54.50
2023-04-09T05:43:43.250Z,55.00
2023-04-09T05:46:10.517Z,55.30
2023-04-09T05:48:38.032Z,54.00
2023-04-09T05:51:05.172Z,52.97
2023-04-09T05:53:33.025Z,53.03
2023-04-09T05:56:00.411Z,54.73
2023-04-09T05:58:29.512Z,49.87
2023-04-09T06:00:56.596Z,50.23
2023-04-09T06:03:23.729Z,46.63
2023-04-09T06:05:50.897Z,47.37
2023-04-09T06:08:18.018Z,47.37
2023-04-09T06:10:45.128Z,45.13
2023-04-09T06:13:12.345Z,43.90
2023-04-09T06:15:39.707Z,43.07
2023-04-09T06:18:06.998Z,42.37
2023-04-09T06:20:34.681Z,47.93
2023-04-09T06:23:01.868Z,42.07
2023-04-09T06:25:28.957Z,40.83
2023-04-09T06:27:56.638Z,43.50
2023-04-09T06:30:23.739Z,45.00
2023-04-09T06:32:54.925Z,46.17
2023-04-09T06:35:22.860Z,43.73
2023-04-09T06:37:49.960Z,39.57
2023-04-09T06:40:17.500Z,40.47
2023-04-09T06:42:44.644Z,42.10
2023-04-09T06:45:12.094Z,42.63
2023-04-09T06:47:39.237Z,42.83
2023-04-09T06:50:06.685Z,40.03
2023-04-09T06:52:33.951Z,37.57
2023-04-09T06:55:01.233Z,40.37
2023-04-09T06:57:28.266Z,39.50
2023-04-09T06:59:55.676Z,37.07
2023-04-09T07:02:22.955Z,39.23
2023-04-09T07:04:50.745Z,38.23
2023-04-09T07:07:18.516Z,36.93
2023-04-09T07:09:45.904Z,36.87
2023-04-09T07:12:13.075Z,37.17
2023-04-09T07:14:40.137Z,35.30
2023-04-09T07:17:07.202Z,34.50
2023-04-09T07:19:34.359Z,37.30
2023-04-09T07:22:01.410Z,33.37
2023-04-09T07:24:28.435Z,32.80
2023-04-09T07:26:56.355Z,34.77
2023-04-09T07:29:23.480Z,33.70
2023-04-09T07:31:50.945Z,33.97
2023-04-09T07:34:18.168Z,42.67
2023-04-09T07:36:45.237Z,33.57
2023-04-09T07:39:12.287Z,32.10
2023-04-09T07:41:39.335Z,34.63
2023-04-09T07:44:07.440Z,32.70
2023-04-09T07:46:34.574Z,35.53
2023-04-09T07:49:01.658Z,35.23
2023-04-09T07:51:28.773Z,35.13
2023-04-09T07:53:55.919Z,35.00
2023-04-09T07:56:23.053Z,35.60
2023-04-09T07:58:50.860Z,32.70
2023-04-09T08:01:18.088Z,29.87
2023-04-09T08:03:45.481Z,26.70
2023-04-09T08:06:12.672Z,26.27
2023-04-09T08:08:39.768Z,30.83
2023-04-09T08:11:07.016Z,25.10
2023-04-09T08:13:34.143Z,26.23
2023-04-09T08:16:04.920Z,26.67
2023-04-09T08:18:31.991Z,24.03
2023-04-09T08:20:59.135Z,24.23
2023-04-09T08:23:26.224Z,24.93
2023-04-09T08:25:53.321Z,30.93
2023-04-09T08:28:20.391Z,25.20
2023-04-09T08:30:48.646Z,24.07
2023-04-09T08:33:16.306Z,27.30
2023-04-09T08:35:43.418Z,21.93
2023-04-09T08:38:10.702Z,22.13
2023-04-09T08:40:38.024Z,22.53
2023-04-09T08:43:06.874Z,19.80
2023-04-09T08:45:34.178Z,21.67
2023-04-09T08:48:03.662Z,21.80
2023-04-09T08:50:32.332Z,21.60
2023-04-09T08:52:59.933Z,19.73
2023-04-09T08:55:27.016Z,19.00
2023-04-09T08:57:54.064Z,19.10
2023-04-09T09:00:21.407Z,19.40
2023-04-09T09:03:04.851Z,20.47
2023-04-09T09:05:38.835Z,18.73
2023-04-09T09:08:07.291Z,19.47
2023-04-09T09:10:46.593Z,19.47
2023-04-09T09:13:21.141Z,17.10
2023-04-09T09:15:50.458Z,18.83
2023-04-09T09:18:19.119Z,21.40
2023-04-09T09:20:46.256Z,20.37
2023-04-09T09:23:13.351Z,20.83
2023-04-09T09:25:41.505Z,20.50
2023-04-09T09:28:09.918Z,21.00
2023-04-09T09:30:38.659Z,20.30
2023-04-09T09:33:12.148Z,17.80
2023-04-09T09:35:50.067Z,19.23
2023-04-09T09:38:17.516Z,19.07
2023-04-09T09:40:46.012Z,18.80
2023-04-09T09:43:14.685Z,25.27
2023-04-09T09:45:43.459Z,19.57
2023-04-09T09:48:14.026Z,17.73
2023-04-09T09:50:44.433Z,19.00
2023-04-09T09:53:12.082Z,17.40
2023-04-09T09:55:40.325Z,19.50
2023-04-09T09:58:17.657Z,16.50
2023-04-09T10:00:47.105Z,15.63
2023-04-09T10:03:16.118Z,19.13
2023-04-09T10:05:43.275Z,17.17
2023-04-09T10:08:10.724Z,18.27
2023-04-09T10:10:38.598Z,17.43
2023-04-09T10:13:07.067Z,14.77
2023-04-09T10:15:34.321Z,18.10
2023-04-09T10:18:01.838Z,15.83
2023-04-09T10:20:42.019Z,17.93
2023-04-09T10:23:12.100Z,15.70
2023-04-09T10:25:39.205Z,14.23
2023-04-09T10:28:15.430Z,15.27
2023-04-09T10:30:43.761Z,16.53
2023-04-09T10:33:11.333Z,14.97
2023-04-09T10:35:38.566Z,14.37
2023-04-09T10:38:09.636Z,15.67
2023-04-09T10:40:57.493Z,15.10
2023-04-09T10:43:24.523Z,14.87
2023-04-09T10:45:53.574Z,14.63
2023-04-09T10:48:22.318Z,14.43
2023-04-09T10:50:52.311Z,12.60
2023-04-09T10:53:27.561Z,12.67
2023-04-09T10:55:54.861Z,14.00
2023-04-09T10:58:23.607Z,13.90
2023-04-09T11:00:51.271Z,13.27
2023-04-09T11:03:25.671Z,13.87
2023-04-09T11:06:03.148Z,12.27
2023-04-09T11:08:32.737Z,12.50
2023-04-09T11:11:01.415Z,12.70
2023-04-09T11:13:29.769Z,14.07
2023-04-09T11:15:57.445Z,12.40
2023-04-09T11:18:28.813Z,12.00
2023-04-09T11:20:59.736Z,11.33
2023-04-09T11:23:27.214Z,12.53
2023-04-09T11:25:54.833Z,12.27
2023-04-09T11:28:21.983Z,12.07
2023-04-09T11:30:51.054Z,13.20
2023-04-09T11:33:19.943Z,12.77
2023-04-09T11:35:47.692Z,11.77
2023-04-09T11:38:14.811Z,11.97
2023-04-09T11:40:48.696Z,11.47
2023-04-09T11:43:20.994Z,12.93
2023-04-09T11:45:48.878Z,11.83
2023-04-09T11:48:18.178Z,11.50
2023-04-09T11:50:45.722Z,11.63
2023-04-09T11:53:16.695Z,12.30
2023-04-09T11:55:43.778Z,12.90
2023-04-09T11:58:11.584Z,11.63
2023-04-09T12:00:40.956Z,13.47
2023-04-09T12:03:08.392Z,14.27
2023-04-09T12:05:37.119Z,13.00
2023-04-09T12:08:08.068Z,13.07
2023-04-09T12:10:36.401Z,14.20
2023-04-09T12:13:07.091Z,13.10
2023-04-09T12:15:35.147Z,14.00
2023-04-09T12:18:02.563Z,13.57
2023-04-09T12:20:29.716Z,13.43
2023-04-09T12:22:56.997Z,13.87
2023-04-09T12:25:24.081Z,12.17
2023-04-09T12:27:51.211Z,11.43
2023-04-09T12:30:18.307Z,12.03
2023-04-09T12:32:45.897Z,11.33
2023-04-09T12:35:13.254Z,12.10
2023-04-09T12:37:40.326Z,12.77
2023-04-09T12:40:07.780Z,12.57
2023-04-09T12:42:34.895Z,12.33
2023-04-09T12:45:02.038Z,11.73
2023-04-09T12:47:29.180Z,10.30
2023-04-09T12:49:56.433Z,11.23
2023-04-09T12:52:24.650Z,11.13
2023-04-09T12:54:52.529Z,10.60
2023-04-09T12:57:19.651Z,9.93
2023-04-09T12:59:46.676Z,9.97
2023-04-09T13:02:14.013Z,9.93
2023-04-09T13:04:41.414Z,9.93
2023-04-09T13:07:08.554Z,9.57
2023-04-09T13:09:35.765Z,9.63
2023-04-09T13:12:02.945Z,9.67
2023-04-09T13:14:30.691Z,14.80
2023-04-09T13:16:57.824Z,8.77
2023-04-09T13:19:24.868Z,11.40
2023-04-09T13:21:51.978Z,9.93
2023-04-09T13:24:19.056Z,9.87
2023-04-09T13:26:46.315Z,10.97
2023-04-09T13:29:13.421Z,9.87
2023-04-09T13:31:40.609Z,8.93
2023-04-09T13:34:07.735Z,10.73
2023-04-09T13:36:35.328Z,9.20
2023-04-09T13:39:04.459Z,9.40
2023-04-09T13:41:32.920Z,9.73
2023-04-09T13:44:00.769Z,9.10
2023-04-09T13:46:28.298Z,10.77
2023-04-09T13:48:55.839Z,11.97
2023-04-09T13:51:23.395Z,9.93
2023-04-09T13:53:52.362Z,9.67
2023-04-09T13:56:19.529Z,9.47
2023-04-09T13:58:46.711Z,9.57
2023-04-09T14:01:14.387Z,9.83
2023-04-09T14:03:41.741Z,8.67
2023-04-09T14:06:08.980Z,8.93
2023-04-09T14:08:36.553Z,9.67
2023-04-09T14:11:04.108Z,9.43
2023-04-09T14:13:31.253Z,9.53
2023-04-09T14:16:00.301Z,9.37
2023-04-09T14:18:27.632Z,10.27
2023-04-09T14:20:54.697Z,10.20
2023-04-09T14:23:21.734Z,9.50
2023-04-09T14:25:48.761Z,10.30
2023-04-09T14:28:15.815Z,11.10
2023-04-09T14:30:42.864Z,12.00
2023-04-09T14:33:09.967Z,9.67
2023-04-09T14:35:37.057Z,9.33
2023-04-09T14:38:04.427Z,11.93
2023-04-09T14:40:31.987Z,9.47
2023-04-09T14:42:59.867Z,9.90
2023-04-09T14:45:28.218Z,9.00
2023-04-09T14:47:57.114Z,9.97
2023-04-09T14:50:24.223Z,9.67
2023-04-09T14:52:51.291Z,8.97
2023-04-09T14:55:18.441Z,10.83
2023-04-09T14:57:45.501Z,9.50
2023-04-09T15:00:12.791Z,8.93
2023-04-09T15:02:39.978Z,9.43
2023-04-09T15:05:07.559Z,9.47
2023-04-09T15:07:34.683Z,10.20
2023-04-09T15:10:01.785Z,10.30
2023-04-09T15:12:29.318Z,10.40
2023-04-09T15:14:57.087Z,9.57
2023-04-09T15:17:24.574Z,10.13
2023-04-09T15:19:52.861Z,9.47
2023-04-09T15:22:20.110Z,9.90
2023-04-09T15:24:47.257Z,11.20
2023-04-09T15:27:14.323Z,9.17
2023-04-09T15:29:41.403Z,10.23
2023-04-09T15:32:08.452Z,9.67
2023-04-09T15:34:35.667Z,30.70
2023-04-09T15:37:03.197Z,56.00
2023-04-09T15:39:32.305Z,56.20
2023-04-09T15:41:59.398Z,37.97
2023-04-09T15:44:26.557Z,23.23
2023-04-09T15:46:53.613Z,18.50
2023-04-09T15:49:21.287Z,16.53
2023-04-09T15:51:48.975Z,11.40
2023-04-09T15:54:16.039Z,10.73
2023-04-09T15:56:43.367Z,10.07
2023-04-09T15:59:10.849Z,11.87
2023-04-09T16:01:38.038Z,10.17
2023-04-09T16:04:05.278Z,25.80
2023-04-09T16:06:32.598Z,19.13
2023-04-09T16:08:59.896Z,14.73
2023-04-09T16:11:27.483Z,13.53
2023-04-09T16:13:56.143Z,15.00
2023-04-09T16:16:23.618Z,12.57
2023-04-09T16:18:50.990Z,11.57
2023-04-09T16:21:18.419Z,11.57
2023-04-09T16:23:45.629Z,53.70
2023-04-09T16:26:12.745Z,111.17
2023-04-09T16:28:39.889Z,72.53
2023-04-09T16:31:07.025Z,21.87
2023-04-09T16:33:34.076Z,14.70
2023-04-09T16:36:01.180Z,11.83
2023-04-09T16:38:29.216Z,12.07
2023-04-09T16:40:56.371Z,11.60
2023-04-09T16:43:23.463Z,11.43
2023-04-09T16:45:52.065Z,11.87
2023-04-09T16:48:19.270Z,13.43
2023-04-09T16:50:46.369Z,12.37
2023-04-09T16:53:13.445Z,11.90
2023-04-09T16:55:40.671Z,14.67
2023-04-09T16:58:07.683Z,12.33
2023-04-09T17:00:35.299Z,12.00
2023-04-09T17:03:02.623Z,11.77
2023-04-09T17:05:29.969Z,13.07
2023-04-09T17:07:57.069Z,12.57
2023-04-09T17:10:24.113Z,15.27
2023-04-09T17:12:51.195Z,13.43
2023-04-09T17:15:18.264Z,12.60
2023-04-09T17:17:46.308Z,11.53
2023-04-09T17:20:13.704Z,12.17
2023-04-09T17:22:40.760Z,13.07
2023-04-09T17:25:08.704Z,12.13
2023-04-09T17:27:35.976Z,12.27
2023-04-09T17:30:04.379Z,11.83
2023-04-09T17:32:31.789Z,11.83
2023-04-09T17:34:59.584Z,12.40
2023-04-09T17:37:28.833Z,11.70
2023-04-09T17:39:55.976Z,12.90
2023-04-09T17:42:23.464Z,13.13
2023-04-09T17:44:50.555Z,14.97
2023-04-09T17:47:17.803Z,13.13
2023-04-09T17:49:45.720Z,14.10
2023-04-09T17:52:13.156Z,13.60
2023-04-09T17:54:40.264Z,12.63
2023-04-09T17:57:07.841Z,13.03
2023-04-09T17:59:35.058Z,13.87
2023-04-09T18:02:02.427Z,13.77
2023-04-09T18:04:29.772Z,16.07
2023-04-09T18:06:56.938Z,16.23
2023-04-09T18:09:24.317Z,15.03
2023-04-09T18:11:56.210Z,14.37
2023-04-09T18:14:23.590Z,15.93
2023-04-09T18:16:50.638Z,15.13
2023-04-09T18:19:17.823Z,13.97
2023-04-09T18:21:44.961Z,16.90
2023-04-09T18:24:12.024Z,15.47
2023-04-09T18:26:39.090Z,16.07
2023-04-09T18:29:06.184Z,16.63
2023-04-09T18:31:33.299Z,16.97
2023-04-09T18:34:00.644Z,17.23
2023-04-09T18:36:28.263Z,19.50
2023-04-09T18:38:56.254Z,19.63
2023-04-09T18:41:23.748Z,19.83
2023-04-09T18:43:50.890Z,21.27
2023-04-09T18:46:18.316Z,19.80
2023-04-09T18:48:47.018Z,19.50
2023-04-09T18:51:14.408Z,21.27
2023-04-09T18:53:41.854Z,18.97
2023-04-09T18:56:09.099Z,22.97
2023-04-09T18:58:36.629Z,21.90
2023-04-09T19:01:12.908Z,25.27
2023-04-09T19:03:40.564Z,24.33
2023-04-09T19:06:12.132Z,25.57
2023-04-09T19:08:39.395Z,24.80
2023-04-09T19:11:07.693Z,23.97
2023-04-09T19:13:34.812Z,28.47
2023-04-09T19:16:02.206Z,26.87
2023-04-09T19:18:29.543Z,30.03
2023-04-09T19:20:56.576Z,33.87
2023-04-09T19:23:23.606Z,33.53
2023-04-09T19:25:52.264Z,32.30
2023-04-09T19:28:19.602Z,32.97
2023-04-09T19:30:46.938Z,37.47
2023-04-09T19:33:14.041Z,36.20
2023-04-09T19:35:43.852Z,37.13
2023-04-09T19:38:11.107Z,36.03
2023-04-09T19:40:38.234Z,40.13
2023-04-09T19:43:05.602Z,38.60
2023-04-09T19:45:33.198Z,41.90
2023-04-09T19:48:00.311Z,40.97
2023-04-09T19:50:27.371Z,43.03
2023-04-09T19:52:56.333Z,45.03
2023-04-09T19:55:24.940Z,43.93
2023-04-09T19:57:52.245Z,44.10
2023-04-09T20:00:19.307Z,46.23
2023-04-09T20:02:47.003Z,44.03
2023-04-09T20:05:14.288Z,42.33
2023-04-09T20:07:41.385Z,45.27
2023-04-09T20:10:10.329Z,47.20
2023-04-09T20:12:37.433Z,40.87
2023-04-09T20:15:04.625Z,44.93
2023-04-09T20:17:32.042Z,52.30
2023-04-09T20:19:59.149Z,60.27
2023-04-09T20:22:26.214Z,62.27
2023-04-09T20:24:53.373Z,63.63
2023-04-09T20:27:21.982Z,73.67
2023-04-09T20:29:49.790Z,70.40
2023-04-09T20:32:16.955Z,79.70
2023-04-09T20:34:44.368Z,78.07
2023-04-09T20:37:11.465Z,80.23
2023-04-09T20:39:38.581Z,80.87
2023-04-09T20:42:05.607Z,76.07
2023-04-09T20:44:33.218Z,72.53
2023-04-09T20:47:00.492Z,73.77
2023-04-09T20:49:27.938Z,67.63
2023-04-09T20:51:55.667Z,71.27
2023-04-09T20:54:23.154Z,70.93
2023-04-09T20:56:51.363Z,66.50
2023-04-09T20:59:19.685Z,65.30
2023-04-09T21:01:46.759Z,67.63
2023-04-09T21:04:14.886Z,60.47
2023-04-09T21:06:42.146Z,67.37
2023-04-09T21:09:09.268Z,65.93
2023-04-09T21:11:36.346Z,67.07
2023-04-09T21:14:04.039Z,64.57
2023-04-09T21:16:31.151Z,69.03
2023-04-09T21:18:58.400Z,62.30
2023-04-09T21:21:27.445Z,71.93
2023-04-09T21:23:54.553Z,67.70
2023-04-09T21:26:29.036Z,69.30
2023-04-09T21:28:59.087Z,68.23
2023-04-09T21:31:26.173Z,66.30
2023-04-09T21:33:55.518Z,68.97
2023-04-09T21:36:22.763Z,64.00
2023-04-09T21:38:49.852Z,70.47
2023-04-09T21:41:25.730Z,74.17
2023-04-09T21:43:52.856Z,83.57
2023-04-09T21:46:20.006Z,77.77
2023-04-09T21:48:47.072Z,78.57
2023-04-09T21:51:14.174Z,72.43
2023-04-09T21:53:41.435Z,74.30
2023-04-09T21:56:08.625Z,76.80
2023-04-09T21:58:35.696Z,81.57
2023-04-09T22:01:02.800Z,74.03
2023-04-09T22:03:30.122Z,73.93
2023-04-09T22:06:00.415Z,72.07
2023-04-09T22:08:27.454Z,63.70
2023-04-09T22:10:54.472Z,67.87
2023-04-09T22:13:21.538Z,63.97
2023-04-09T22:15:48.643Z,57.00
2023-04-09T22:18:15.705Z,64.97
2023-04-09T22:20:42.904Z,61.43
2023-04-09T22:23:10.405Z,59.53
2023-04-09T22:25:37.496Z,62.03
2023-04-09T22:28:05.742Z,60.43
2023-04-09T22:30:32.827Z,58.70
2023-04-09T22:32:59.896Z,60.40
2023-04-09T22:35:26.984Z,59.10
2023-04-09T22:37:54.034Z,56.00
2023-04-09T22:40:21.101Z,56.30
2023-04-09T22:42:48.258Z,60.40
2023-04-09T22:45:15.605Z,60.63
2023-04-09T22:47:42.696Z,58.80
2023-04-09T22:50:10.992Z,56.50
2023-04-09T22:52:38.049Z,55.03
2023-04-09T22:55:06.490Z,54.80
2023-04-09T22:57:33.579Z,57.23
2023-04-09T23:00:00.727Z,59.13
2023-04-09T23:02:27.863Z,58.17
2023-04-09T23:04:55.207Z,56.07
2023-04-09T23:07:22.283Z,59.83
2023-04-09T23:09:49.510Z,61.30
2023-04-09T23:12:16.593Z,62.80
2023-04-09T23:14:43.617Z,57.00
2023-04-09T23:17:10.725Z,60.63
2023-04-09T23:19:37.763Z,60.57
2023-04-09T23:22:04.829Z,58.07
2023-04-09T23:24:31.875Z,57.60
2023-04-09T23:26:59.065Z,60.80
2023-04-09T23:29:26.204Z,51.53
2023-04-09T23:31:53.549Z,59.77
2023-04-09T23:34:20.714Z,58.83
2023-04-09T23:36:47.808Z,53.83
2023-04-09T23:39:14.851Z,56.47
2023-04-09T23:41:41.901Z,54.60
2023-04-09T23:44:08.955Z,54.03
2023-04-09T23:46:36.476Z,54.63
2023-04-09T23:49:03.806Z,56.00
2023-04-09T23:51:31.755Z,54.33
2023-04-09T23:53:58.969Z,58.80
2023-04-09T23:56:26.001Z,54.00
2023-04-09T23:58:53.076Z,51.80
